Weather at McCarran International Airport

Public forecast

Using degrees Fahrenheit for public forecast. Weather courtesy of forecast.io.

Current aviation weather report (METAR) for McCarran International Airport

Retrieved 2021/04/22 22:56 UTC (38 minutes ago):

KLAS 222256Z 00000KT 10SM FEW100 26/M05 A2969 RMK AO2 SLP036 VIRGA DSNT N T02561050

Aviation forecast (TAF) for McCarran International Airport

Retrieved 2021/04/22 18:22 UTC (5 hours ago):

TAF KLAS 221720Z 2218/2324 35008KT P6SM FEW100 FM222200 23009KT P6SM FEW100 SCT120 FM230600 21012KT P6SM SKC